Time;durP1;ratioP1;P1;durP2;ratioP2;P2;SDS_P1;SDS_P2;PMS_P1;PMS_P2;Temp;Humidity;BMP_temperature;BMP_pressure;BME280_temperature;BME280_humidity;BME280_pressure;Samples;Min_cycle;Max_cycle;Signal;HPM_P1;HPM_P2
2022/03/24 00:02:11;;;;;;;34.67;19.80;;;8.10;99.90;;;;;;5074684;27;20302;-44
2022/03/24 00:04:38;;;;;;;28.10;19.03;;;8.20;99.90;;;;;;5094561;28;20227;-49
2022/03/24 00:07:06;;;;;;;29.03;19.60;;;8.00;99.90;;;;;;5086881;28;20203;-44
2022/03/24 00:09:33;;;;;;;32.90;19.60;;;7.90;99.90;;;;;;5083551;27;20278;-45
2022/03/24 00:12:01;;;;;;;33.17;20.77;;;7.80;99.90;;;;;;5070506;28;20245;-43
2022/03/24 00:14:28;;;;;;;31.93;19.20;;;7.70;99.90;;;;;;5073223;27;20710;-45
2022/03/24 00:16:55;;;;;;;33.57;20.07;;;7.70;99.90;;;;;;5071969;27;20207;-44
2022/03/24 00:19:22;;;;;;;32.47;19.67;;;7.60;99.90;;;;;;5076645;28;20821;-46
2022/03/24 00:21:50;;;;;;;32.20;20.00;;;7.50;99.90;;;;;;5100672;28;20410;-48
2022/03/24 00:24:17;;;;;;;33.70;21.40;;;7.50;99.90;;;;;;5072672;28;20328;-45
2022/03/24 00:26:43;;;;;;;37.20;19.80;;;7.30;99.90;;;;;;5095541;28;20727;-46
2022/03/24 00:29:13;;;;;;;37.40;22.60;;;7.30;99.90;;;;;;5075452;27;20318;-44
2022/03/24 00:31:40;;;;;;;33.50;21.23;;;7.40;99.90;;;;;;5069112;27;20255;-46
2022/03/24 00:34:07;;;;;;;33.40;20.67;;;7.30;99.90;;;;;;5081775;28;23426;-44
2022/03/24 00:36:34;;;;;;;32.93;20.13;;;7.20;99.90;;;;;;5098065;27;20203;-45
2022/03/24 00:39:01;;;;;;;31.90;20.30;;;7.10;99.90;;;;;;5072919;28;20212;-44
2022/03/24 00:41:28;;;;;;;30.47;20.33;;;7.00;99.90;;;;;;5085229;28;20225;-44
2022/03/24 00:43:56;;;;;;;32.17;19.87;;;7.00;99.90;;;;;;5079295;28;20250;-45
2022/03/24 00:46:25;;;;;;;33.57;19.93;;;6.90;99.90;;;;;;5070261;27;20207;-48
2022/03/24 00:48:54;;;;;;;29.30;18.87;;;6.90;99.90;;;;;;5088068;28;20206;-48
2022/03/24 00:51:21;;;;;;;33.57;19.27;;;6.80;99.90;;;;;;5081665;27;20292;-45
2022/03/24 00:53:49;;;;;;;31.27;19.70;;;6.80;99.90;;;;;;5083265;28;20473;-45
2022/03/24 00:56:18;;;;;;;34.53;20.43;;;6.80;99.90;;;;;;5085835;28;20207;-45
2022/03/24 00:58:46;;;;;;;34.80;20.23;;;6.80;99.90;;;;;;5097474;28;20562;-46
2022/03/24 01:01:13;;;;;;;34.20;19.97;;;6.70;99.90;;;;;;5045396;28;20222;-44
2022/03/24 01:03:42;;;;;;;31.40;19.37;;;6.70;99.90;;;;;;5075981;28;20242;-45
2022/03/24 01:06:10;;;;;;;34.27;19.10;;;6.70;99.90;;;;;;5065931;28;20234;-43
2022/03/24 01:08:37;;;;;;;32.73;19.50;;;6.70;99.90;;;;;;5093104;28;20242;-44
2022/03/24 01:11:05;;;;;;;34.13;20.50;;;6.70;99.90;;;;;;5082924;28;21157;-49
2022/03/24 01:13:34;;;;;;;38.43;20.53;;;6.80;99.90;;;;;;5074747;28;20227;-45
2022/03/24 01:16:01;;;;;;;32.87;19.37;;;6.80;99.90;;;;;;5069668;28;20207;-43
2022/03/24 01:18:29;;;;;;;32.70;20.30;;;6.70;99.90;;;;;;5073935;28;20212;-45
2022/03/24 01:20:57;;;;;;;36.67;19.43;;;6.70;99.90;;;;;;5076402;28;20242;-44
2022/03/24 01:23:25;;;;;;;34.27;20.47;;;6.70;99.90;;;;;;5075541;28;20298;-45
2022/03/24 01:25:54;;;;;;;32.63;19.97;;;6.60;99.90;;;;;;5079614;27;20296;-46
2022/03/24 01:28:21;;;;;;;33.97;20.07;;;6.60;99.90;;;;;;5088172;27;20231;-43
2022/03/24 01:30:48;;;;;;;35.90;20.57;;;6.60;99.90;;;;;;5073976;28;20211;-44
2022/03/24 01:33:15;;;;;;;40.47;19.93;;;6.60;99.90;;;;;;5073428;27;20415;-45
2022/03/24 01:35:42;;;;;;;39.00;20.33;;;6.50;99.90;;;;;;5055665;28;20210;-48
2022/03/24 01:38:10;;;;;;;35.10;20.47;;;6.50;99.90;;;;;;5103139;27;20211;-45
2022/03/24 01:40:37;;;;;;;34.97;20.23;;;6.60;99.90;;;;;;5080265;27;20232;-44
2022/03/24 01:43:07;;;;;;;36.50;19.73;;;6.50;99.90;;;;;;5084553;28;20601;-45
2022/03/24 01:45:34;;;;;;;41.23;20.33;;;6.50;99.90;;;;;;5097389;27;20208;-44
2022/03/24 01:48:01;;;;;;;34.00;20.03;;;6.50;99.90;;;;;;5069979;28;20214;-45
2022/03/24 01:50:28;;;;;;;37.47;21.40;;;6.50;99.90;;;;;;5081101;28;20210;-44
2022/03/24 01:52:55;;;;;;;34.13;20.17;;;6.50;99.90;;;;;;5077189;27;20306;-49
2022/03/24 01:55:24;;;;;;;33.77;20.20;;;6.50;99.90;;;;;;5082147;27;20368;-49
2022/03/24 01:57:51;;;;;;;33.33;20.23;;;6.50;99.90;;;;;;5094356;27;20211;-49
2022/03/24 02:00:19;;;;;;;37.10;21.20;;;6.50;99.90;;;;;;5073934;28;21023;-45
2022/03/24 02:02:46;;;;;;;35.43;20.17;;;6.50;99.90;;;;;;5066486;28;20230;-48
2022/03/24 02:05:13;;;;;;;35.37;20.57;;;6.50;99.90;;;;;;5082487;27;20245;-45
2022/03/24 02:07:40;;;;;;;37.30;20.87;;;6.50;99.90;;;;;;5072740;27;20199;-42
2022/03/24 02:10:08;;;;;;;35.50;22.20;;;6.50;99.90;;;;;;5092951;28;20274;-48
2022/03/24 02:12:37;;;;;;;33.33;18.63;;;6.40;99.90;;;;;;5091328;27;20242;-49
2022/03/24 02:15:05;;;;;;;30.83;18.90;;;6.40;99.90;;;;;;5075112;27;20204;-45
2022/03/24 02:17:32;;;;;;;35.57;20.37;;;6.40;99.90;;;;;;5076835;28;20309;-45
2022/03/24 02:19:59;;;;;;;34.93;20.47;;;6.20;99.90;;;;;;5081635;28;20306;-45
2022/03/24 02:22:28;;;;;;;32.50;19.73;;;6.20;99.90;;;;;;5089001;27;20300;-44
2022/03/24 02:24:55;;;;;;;32.37;19.70;;;6.20;99.90;;;;;;5095261;28;20275;-44
2022/03/24 02:27:24;;;;;;;33.90;19.80;;;6.20;99.90;;;;;;5071334;27;20204;-45
2022/03/24 02:29:52;;;;;;;34.63;21.73;;;6.20;99.90;;;;;;5097012;28;20441;-44
2022/03/24 02:32:20;;;;;;;37.90;20.13;;;6.10;99.90;;;;;;5076934;27;20222;-45
2022/03/24 02:34:51;;;;;;;39.23;20.27;;;6.10;99.90;;;;;;5084635;27;20220;-49
2022/03/24 02:37:21;;;;;;;34.23;21.30;;;6.00;99.90;;;;;;5080216;28;20639;-46
2022/03/24 02:39:51;;;;;;;39.60;21.30;;;6.00;99.90;;;;;;5095135;28;20218;-49
2022/03/24 02:42:20;;;;;;;38.67;21.47;;;6.00;99.90;;;;;;5082650;28;20199;-43
2022/03/24 02:44:49;;;;;;;34.87;20.33;;;6.00;99.90;;;;;;5099954;28;20227;-49
2022/03/24 02:47:17;;;;;;;38.53;20.73;;;6.00;99.90;;;;;;5091056;27;20496;-44
2022/03/24 02:49:45;;;;;;;35.07;20.57;;;5.90;99.90;;;;;;5061147;28;20392;-49
2022/03/24 02:52:13;;;;;;;37.37;20.43;;;5.80;99.90;;;;;;5074552;27;21069;-45
2022/03/24 02:54:41;;;;;;;42.07;21.33;;;5.70;99.90;;;;;;5104386;27;20579;-49
2022/03/24 02:57:09;;;;;;;38.03;19.87;;;5.60;99.90;;;;;;5068437;27;20307;-46
2022/03/24 02:59:37;;;;;;;39.80;21.30;;;5.60;99.90;;;;;;5096204;27;20205;-46
2022/03/24 03:02:06;;;;;;;38.60;19.90;;;5.60;99.90;;;;;;5078226;28;20897;-46
2022/03/24 03:04:34;;;;;;;33.97;19.60;;;5.50;99.90;;;;;;5080682;27;20234;-46
2022/03/24 03:07:02;;;;;;;31.93;18.83;;;5.50;99.90;;;;;;5076364;28;20864;-46
2022/03/24 03:09:30;;;;;;;42.80;20.33;;;5.40;99.90;;;;;;5087553;27;20279;-45
2022/03/24 03:11:58;;;;;;;39.77;20.07;;;5.50;99.90;;;;;;5073989;28;20211;-49
2022/03/24 03:14:28;;;;;;;35.83;20.07;;;5.60;99.90;;;;;;5098098;27;20237;-42
2022/03/24 03:16:55;;;;;;;39.07;20.17;;;5.50;99.90;;;;;;5094892;28;20215;-49
2022/03/24 03:19:23;;;;;;;37.37;19.93;;;5.60;99.90;;;;;;5084296;28;20214;-44
2022/03/24 03:21:50;;;;;;;37.90;19.63;;;5.60;99.90;;;;;;5064916;27;20665;-46
2022/03/24 03:24:18;;;;;;;36.13;21.10;;;5.60;99.90;;;;;;5079131;28;20797;-46
2022/03/24 03:26:46;;;;;;;43.70;20.37;;;5.50;99.90;;;;;;5090788;28;30233;-46
2022/03/24 03:29:13;;;;;;;36.03;20.80;;;5.50;99.90;;;;;;5075885;27;20397;-45
2022/03/24 03:31:42;;;;;;;40.37;21.23;;;5.50;99.90;;;;;;5092334;27;20227;-44
2022/03/24 03:34:10;;;;;;;35.67;21.23;;;5.50;99.90;;;;;;5085047;27;20656;-44
2022/03/24 03:36:38;;;;;;;32.33;19.73;;;5.50;99.90;;;;;;5074371;27;20212;-44
2022/03/24 03:39:06;;;;;;;36.10;21.37;;;5.40;99.90;;;;;;5072301;28;20488;-44
2022/03/24 03:41:34;;;;;;;40.07;22.07;;;5.40;99.90;;;;;;5083894;28;20210;-44
2022/03/24 03:44:01;;;;;;;47.03;22.00;;;5.30;99.90;;;;;;5085906;28;20254;-44
2022/03/24 03:46:28;;;;;;;37.10;20.73;;;5.30;99.90;;;;;;5086913;28;20733;-45
2022/03/24 03:48:56;;;;;;;34.23;20.47;;;5.30;99.90;;;;;;5093156;28;20215;-45
2022/03/24 03:51:23;;;;;;;37.07;21.00;;;5.30;99.90;;;;;;5061464;27;20207;-45
2022/03/24 03:53:50;;;;;;;38.33;21.17;;;5.30;99.90;;;;;;5076098;28;21057;-45
2022/03/24 03:56:17;;;;;;;41.03;23.87;;;5.40;99.90;;;;;;5080517;28;20214;-45
2022/03/24 03:58:43;;;;;;;39.33;21.33;;;5.40;99.90;;;;;;5083179;28;20528;-44
2022/03/24 04:01:10;;;;;;;35.13;20.77;;;5.30;99.90;;;;;;5086292;27;20473;-43
2022/03/24 04:03:39;;;;;;;39.37;20.93;;;5.10;99.90;;;;;;5091454;28;20508;-45
2022/03/24 04:06:10;;;;;;;36.00;20.10;;;5.00;99.90;;;;;;5082661;28;20435;-45
2022/03/24 04:08:37;;;;;;;35.27;18.60;;;4.90;99.90;;;;;;5071268;28;21323;-45
2022/03/24 04:11:06;;;;;;;28.53;16.87;;;4.80;99.90;;;;;;5082690;28;20238;-45
2022/03/24 04:13:33;;;;;;;37.40;19.20;;;4.50;99.90;;;;;;5081539;28;20223;-44
2022/03/24 04:16:00;;;;;;;32.23;18.43;;;4.40;99.90;;;;;;5094756;27;20218;-44
2022/03/24 04:18:27;;;;;;;34.80;19.43;;;4.30;99.90;;;;;;5071987;27;21044;-44
2022/03/24 04:20:54;;;;;;;40.57;18.43;;;4.20;99.90;;;;;;5093008;27;20226;-45
2022/03/24 04:23:22;;;;;;;35.90;20.10;;;4.20;99.90;;;;;;5071976;28;20259;-46
2022/03/24 04:25:49;;;;;;;32.80;18.67;;;4.10;99.90;;;;;;5073536;28;20282;-44
2022/03/24 04:28:16;;;;;;;31.97;18.47;;;4.20;99.90;;;;;;5072390;27;20218;-44
2022/03/24 04:30:44;;;;;;;39.07;19.47;;;4.10;99.90;;;;;;5064914;27;20824;-44
2022/03/24 04:33:11;;;;;;;39.33;19.83;;;4.10;99.90;;;;;;5077056;28;20426;-44
2022/03/24 04:35:38;;;;;;;35.53;19.80;;;4.10;99.90;;;;;;5084471;28;20275;-44
2022/03/24 04:38:07;;;;;;;41.23;19.93;;;4.10;99.90;;;;;;5078051;27;20290;-44
2022/03/24 04:40:35;;;;;;;42.83;20.10;;;4.10;99.90;;;;;;5058897;28;20441;-45
2022/03/24 04:43:02;;;;;;;40.73;20.63;;;4.10;99.90;;;;;;5091055;28;20222;-42
2022/03/24 04:45:32;;;;;;;36.53;20.87;;;4.10;99.90;;;;;;5085879;28;20230;-43
2022/03/24 04:48:00;;;;;;;34.20;21.10;;;4.20;99.90;;;;;;5063275;28;20234;-44
2022/03/24 04:50:27;;;;;;;41.10;21.17;;;4.20;99.90;;;;;;5072273;28;20206;-45
2022/03/24 04:52:54;;;;;;;37.67;20.20;;;4.30;99.90;;;;;;5088075;28;20965;-45
2022/03/24 04:55:21;;;;;;;38.07;21.07;;;4.30;99.90;;;;;;5047612;28;21073;-44
2022/03/24 04:57:49;;;;;;;37.20;20.70;;;4.40;99.90;;;;;;5090979;28;20307;-44
2022/03/24 05:00:18;;;;;;;38.80;20.10;;;4.30;99.90;;;;;;5089396;28;20560;-44
2022/03/24 05:02:45;;;;;;;35.80;20.63;;;4.40;99.90;;;;;;5074273;28;20229;-44
2022/03/24 05:05:12;;;;;;;38.30;21.57;;;4.40;99.90;;;;;;5082643;28;20591;-43
2022/03/24 05:07:40;;;;;;;39.97;21.07;;;4.50;99.90;;;;;;5090086;28;20281;-44
2022/03/24 05:10:08;;;;;;;36.97;21.47;;;4.40;99.90;;;;;;5065154;28;20286;-43
2022/03/24 05:12:35;;;;;;;33.93;20.47;;;4.40;99.90;;;;;;5079839;28;20256;-44
2022/03/24 05:15:04;;;;;;;38.97;20.53;;;4.40;99.90;;;;;;5095272;28;20569;-44
2022/03/24 05:17:31;;;;;;;33.97;20.63;;;4.40;99.90;;;;;;5063637;28;20381;-44
2022/03/24 05:19:58;;;;;;;38.33;20.70;;;4.40;99.90;;;;;;5088559;28;20203;-43
2022/03/24 05:22:26;;;;;;;38.47;20.93;;;4.50;99.90;;;;;;5093093;28;20603;-48
2022/03/24 05:24:53;;;;;;;39.17;21.67;;;4.40;99.90;;;;;;5058879;28;20216;-43
2022/03/24 05:27:19;;;;;;;37.10;21.20;;;4.30;99.90;;;;;;5069105;28;20574;-46
2022/03/24 05:29:46;;;;;;;38.60;21.87;;;4.30;99.90;;;;;;5092236;28;20209;-46
2022/03/24 05:32:14;;;;;;;34.13;20.27;;;4.30;99.90;;;;;;5072131;28;20479;-49
2022/03/24 05:34:41;;;;;;;36.67;20.17;;;4.30;99.90;;;;;;5083081;28;20346;-43
2022/03/24 05:37:08;;;;;;;37.23;20.27;;;4.30;99.90;;;;;;5086587;28;20204;-49
2022/03/24 05:39:35;;;;;;;35.37;21.00;;;4.30;99.90;;;;;;5077664;28;20291;-44
2022/03/24 05:42:02;;;;;;;39.90;19.93;;;4.30;99.90;;;;;;5056098;28;20212;-49
2022/03/24 05:44:30;;;;;;;42.40;21.70;;;4.30;99.90;;;;;;5073023;28;20223;-44
2022/03/24 05:46:58;;;;;;;40.40;21.77;;;4.20;99.90;;;;;;5081192;28;20211;-48
2022/03/24 05:49:26;;;;;;;39.20;20.77;;;4.30;99.90;;;;;;5083136;28;20199;-45
2022/03/24 05:51:53;;;;;;;42.20;19.40;;;4.30;99.90;;;;;;5101156;28;20276;-45
2022/03/24 05:54:20;;;;;;;35.80;19.17;;;4.30;99.90;;;;;;5071031;28;20651;-44
2022/03/24 05:56:48;;;;;;;32.27;18.70;;;4.30;99.90;;;;;;5061251;28;20212;-44
2022/03/24 05:59:15;;;;;;;38.30;19.03;;;4.30;99.90;;;;;;5057571;28;20205;-45
2022/03/24 06:01:44;;;;;;;42.50;20.13;;;4.30;99.90;;;;;;5066198;28;20283;-44
2022/03/24 06:04:13;;;;;;;31.63;18.93;;;4.30;99.90;;;;;;5075210;28;21302;-44
2022/03/24 06:06:42;;;;;;;35.63;19.67;;;4.30;99.90;;;;;;5080442;28;20214;-44
2022/03/24 06:09:09;;;;;;;33.33;19.63;;;4.30;99.90;;;;;;5075901;28;20242;-45
2022/03/24 06:11:37;;;;;;;37.57;19.40;;;4.30;99.90;;;;;;5063523;28;20234;-44
2022/03/24 06:14:07;;;;;;;35.90;18.47;;;4.40;99.90;;;;;;5081053;28;20407;-44
2022/03/24 06:16:34;;;;;;;45.33;18.97;;;4.40;99.90;;;;;;5066555;27;20244;-45
2022/03/24 06:19:01;;;;;;;41.50;18.80;;;4.40;99.90;;;;;;5082658;28;20211;-44
2022/03/24 06:21:28;;;;;;;38.73;19.07;;;4.50;99.90;;;;;;5053969;27;20434;-44
2022/03/24 06:23:56;;;;;;;42.60;19.10;;;4.70;99.90;;;;;;5077209;27;20443;-44
2022/03/24 06:26:23;;;;;;;40.57;17.57;;;4.50;99.90;;;;;;5076258;28;20226;-45
2022/03/24 06:28:52;;;;;;;37.13;19.03;;;4.60;99.90;;;;;;5071102;28;20623;-44
2022/03/24 06:31:19;;;;;;;33.47;17.83;;;4.60;99.90;;;;;;5095789;27;20211;-44
2022/03/24 06:33:46;;;;;;;40.50;17.10;;;4.70;99.90;;;;;;5082066;27;20501;-44
2022/03/24 06:36:14;;;;;;;39.00;18.70;;;4.70;99.90;;;;;;5094044;27;20228;-45
2022/03/24 06:38:41;;;;;;;33.27;18.13;;;4.80;99.90;;;;;;5095908;27;20224;-44
2022/03/24 06:41:09;;;;;;;32.53;18.17;;;4.90;99.90;;;;;;5098351;27;20207;-46
2022/03/24 06:43:36;;;;;;;37.20;19.73;;;4.90;99.90;;;;;;5067687;27;20223;-43
2022/03/24 06:46:06;;;;;;;40.47;20.03;;;5.00;99.90;;;;;;5091260;28;20542;-44
2022/03/24 06:48:34;;;;;;;35.73;18.50;;;5.10;99.90;;;;;;5085630;28;20238;-43
2022/03/24 06:51:01;;;;;;;41.20;18.97;;;5.20;99.90;;;;;;5097409;27;20341;-45
2022/03/24 06:53:28;;;;;;;42.60;19.10;;;5.30;99.90;;;;;;5096160;27;20464;-46
2022/03/24 06:55:55;;;;;;;43.97;20.03;;;5.50;99.90;;;;;;5096584;27;20404;-45
2022/03/24 06:58:24;;;;;;;44.20;19.77;;;5.60;99.90;;;;;;5070106;28;20544;-46
2022/03/24 07:00:51;;;;;;;39.40;20.53;;;5.70;99.90;;;;;;5068945;27;20416;-45
2022/03/24 07:03:18;;;;;;;34.90;20.30;;;5.80;99.90;;;;;;5080035;27;20305;-44
2022/03/24 07:05:45;;;;;;;37.13;20.90;;;5.90;99.90;;;;;;5086327;27;20197;-44
2022/03/24 07:08:12;;;;;;;33.90;20.43;;;6.20;99.90;;;;;;5094649;28;20564;-44
2022/03/24 07:10:39;;;;;;;18.90;11.50;;;6.30;99.90;;;;;;5086316;27;20284;-47
2022/03/24 07:13:06;;;;;;;37.47;22.30;;;6.50;99.90;;;;;;5073172;27;20221;-45
2022/03/24 07:15:34;;;;;;;36.57;22.17;;;6.70;99.90;;;;;;5081159;28;20208;-49
2022/03/24 07:18:01;;;;;;;38.40;22.30;;;6.70;99.90;;;;;;5084297;28;20203;-42
2022/03/24 07:20:28;;;;;;;33.40;22.30;;;6.90;99.90;;;;;;5096954;28;20211;-48
2022/03/24 07:22:57;;;;;;;44.63;23.43;;;6.90;99.90;;;;;;5088331;28;20449;-43
2022/03/24 07:25:24;;;;;;;41.07;23.17;;;7.00;99.90;;;;;;5086758;27;20203;-47
2022/03/24 07:27:52;;;;;;;36.57;22.93;;;7.10;99.90;;;;;;5093519;27;20720;-43
2022/03/24 07:30:19;;;;;;;39.07;23.03;;;7.20;99.90;;;;;;5065401;27;20597;-47
2022/03/24 07:32:48;;;;;;;40.93;22.10;;;7.20;99.90;;;;;;5071839;28;20745;-42
2022/03/24 07:35:15;;;;;;;38.00;22.57;;;7.30;99.90;;;;;;5086114;27;20227;-46
2022/03/24 07:37:42;;;;;;;38.63;21.63;;;7.40;99.90;;;;;;5096360;28;20452;-45
2022/03/24 07:40:10;;;;;;;34.77;21.40;;;7.50;99.90;;;;;;5095819;28;20204;-45
2022/03/24 07:42:37;;;;;;;45.00;22.40;;;7.50;99.90;;;;;;5091381;27;20235;-44
2022/03/24 07:45:06;;;;;;;35.73;21.40;;;7.70;99.90;;;;;;5081279;27;20207;-45
2022/03/24 07:47:33;;;;;;;37.73;22.23;;;7.70;99.90;;;;;;5085498;27;20230;-45
2022/03/24 07:50:01;;;;;;;39.13;22.43;;;7.80;99.90;;;;;;5090540;28;20740;-45
2022/03/24 07:52:32;;;;;;;37.50;20.97;;;7.80;99.90;;;;;;5091434;28;20204;-44
2022/03/24 07:55:03;;;;;;;40.50;22.87;;;7.90;99.90;;;;;;5095011;27;20239;-45
2022/03/24 07:57:30;;;;;;;32.23;21.40;;;8.00;99.90;;;;;;5101111;27;20227;-46
2022/03/24 07:59:57;;;;;;;32.07;21.37;;;8.10;99.90;;;;;;5083697;27;20322;-45
2022/03/24 08:02:24;;;;;;;35.57;21.97;;;8.10;99.90;;;;;;5085908;27;20526;-46
2022/03/24 08:04:52;;;;;;;42.13;23.73;;;8.20;99.90;;;;;;5089572;27;20671;-45
2022/03/24 08:07:20;;;;;;;35.57;21.83;;;8.30;99.90;;;;;;5097705;27;20204;-45
2022/03/24 08:09:48;;;;;;;33.53;21.57;;;8.40;99.90;;;;;;5093841;27;20257;-46
2022/03/24 08:12:15;;;;;;;36.23;21.50;;;8.40;99.90;;;;;;5097844;27;20275;-45
2022/03/24 08:14:42;;;;;;;34.33;21.57;;;8.50;99.90;;;;;;5088500;27;20242;-45
2022/03/24 08:17:09;;;;;;;33.10;21.63;;;8.60;99.90;;;;;;5063767;28;20211;-46
2022/03/24 08:19:36;;;;;;;36.07;21.33;;;8.70;99.90;;;;;;5093306;27;20455;-46
2022/03/24 08:22:03;;;;;;;36.33;20.87;;;8.80;99.90;;;;;;5076666;28;20473;-46
2022/03/24 08:24:31;;;;;;;39.53;23.07;;;8.80;99.90;;;;;;5088097;27;20251;-45
2022/03/24 08:26:58;;;;;;;41.37;23.17;;;9.00;99.90;;;;;;5092100;28;20491;-48
2022/03/24 08:29:25;;;;;;;33.97;20.90;;;9.00;99.90;;;;;;5090894;27;20681;-44
2022/03/24 08:31:52;;;;;;;38.97;21.43;;;9.10;99.90;;;;;;5077469;28;20687;-42
2022/03/24 08:34:19;;;;;;;34.23;20.23;;;9.20;99.90;;;;;;5084623;28;20240;-48
2022/03/24 08:36:45;;;;;;;34.10;21.13;;;9.30;99.90;;;;;;5084422;28;20241;-44
2022/03/24 08:39:12;;;;;;;37.80;20.93;;;9.40;99.90;;;;;;5087716;27;20476;-48
2022/03/24 08:41:41;;;;;;;37.80;20.90;;;9.50;99.90;;;;;;5099383;27;20230;-47
2022/03/24 08:44:08;;;;;;;33.90;20.53;;;9.60;99.90;;;;;;5098104;28;20286;-49
2022/03/24 08:46:34;;;;;;;29.33;19.67;;;9.60;99.90;;;;;;5086674;28;20409;-43
2022/03/24 08:49:01;;;;;;;35.03;19.10;;;9.70;99.90;;;;;;5095323;28;20295;-49
2022/03/24 08:51:28;;;;;;;44.00;19.80;;;9.80;99.90;;;;;;5094092;28;20370;-43
2022/03/24 08:53:55;;;;;;;34.50;19.60;;;9.90;99.90;;;;;;5102647;28;20227;-44
2022/03/24 08:56:22;;;;;;;29.07;18.00;;;9.90;99.90;;;;;;5102647;28;20514;-46
2022/03/24 08:58:51;;;;;;;30.83;18.17;;;10.00;99.90;;;;;;5104305;28;20238;-46
2022/03/24 09:01:19;;;;;;;29.65;18.85;;;10.10;99.90;;;;;;5095989;28;20281;-46
2022/03/24 09:03:48;;;;;;;32.23;18.73;;;10.10;99.90;;;;;;5081644;28;20258;-45
2022/03/24 09:06:15;;;;;;;30.08;18.05;;;10.20;99.90;;;;;;5099935;28;20244;-45
2022/03/24 09:08:42;;;;;;;33.22;19.08;;;10.20;99.90;;;;;;5099102;28;20243;-46
2022/03/24 09:11:09;;;;;;;32.85;18.70;;;10.30;99.90;;;;;;5080074;28;20274;-45
2022/03/24 09:13:37;;;;;;;28.77;18.48;;;10.40;99.90;;;;;;5091714;28;20512;-47
2022/03/24 09:16:06;;;;;;;33.10;18.83;;;10.40;99.90;;;;;;5086656;28;20318;-48
2022/03/24 09:18:33;;;;;;;33.00;19.15;;;10.60;99.90;;;;;;5074886;28;20236;-45
2022/03/24 09:21:00;;;;;;;33.50;19.63;;;10.60;99.90;;;;;;5085699;28;20231;-44
2022/03/24 09:23:28;;;;;;;31.48;20.25;;;10.70;99.90;;;;;;5086055;28;20326;-45
2022/03/24 09:25:56;;;;;;;27.65;17.70;;;10.80;99.90;;;;;;5093999;28;20204;-45
2022/03/24 09:28:24;;;;;;;31.33;19.02;;;10.80;99.90;;;;;;5094256;28;20322;-46
2022/03/24 09:30:53;;;;;;;33.95;18.85;;;10.90;99.90;;;;;;5100027;28;20211;-46
2022/03/24 09:33:22;;;;;;;37.03;20.17;;;11.00;99.90;;;;;;5066297;28;20522;-46
2022/03/24 09:35:50;;;;;;;30.80;19.88;;;11.00;99.90;;;;;;5085962;28;20590;-45
2022/03/24 09:38:17;;;;;;;33.83;19.58;;;11.00;99.90;;;;;;5082457;28;20400;-46
2022/03/24 09:40:45;;;;;;;33.45;18.25;;;11.20;99.90;;;;;;5095308;28;20211;-46
2022/03/24 09:43:13;;;;;;;33.30;18.83;;;11.40;99.90;;;;;;5089322;28;20245;-44
2022/03/24 09:45:42;;;;;;;31.50;19.45;;;11.40;99.90;;;;;;5100044;28;20218;-46
2022/03/24 09:48:10;;;;;;;28.42;17.92;;;11.50;99.90;;;;;;5073073;27;20214;-45
2022/03/24 09:50:39;;;;;;;30.27;18.20;;;11.50;99.90;;;;;;5096490;27;20199;-46
2022/03/24 09:53:06;;;;;;;34.40;18.58;;;11.60;99.90;;;;;;5095932;27;20224;-45
2022/03/24 09:55:36;;;;;;;32.55;19.20;;;11.70;99.90;;;;;;5078727;27;20336;-45
2022/03/24 09:58:04;;;;;;;31.55;18.65;;;11.80;99.90;;;;;;5102576;27;20196;-46
2022/03/24 10:00:31;;;;;;;33.83;18.48;;;11.80;99.90;;;;;;5089504;28;20200;-45
2022/03/24 10:03:09;;;;;;;30.83;17.67;;;11.80;99.90;;;;;;5092140;27;20243;-46
2022/03/24 10:05:36;;;;;;;31.52;17.80;;;11.90;99.90;;;;;;5078840;28;20479;-46
2022/03/24 10:08:07;;;;;;;34.30;18.05;;;11.90;99.90;;;;;;5097326;28;20204;-44
2022/03/24 10:10:36;;;;;;;34.58;18.13;;;12.00;99.90;;;;;;5086077;27;20278;-46
2022/03/24 10:13:04;;;;;;;34.42;19.13;;;12.00;99.90;;;;;;5099195;27;20337;-46
2022/03/24 10:15:31;;;;;;;29.48;18.70;;;12.10;99.90;;;;;;5094702;27;20502;-47
2022/03/24 10:18:00;;;;;;;29.90;18.23;;;12.30;99.90;;;;;;5080291;27;20380;-46
2022/03/24 10:20:29;;;;;;;24.60;16.52;;;12.30;99.90;;;;;;5085436;27;20233;-47
2022/03/24 10:22:58;;;;;;;35.92;17.35;;;12.40;99.90;;;;;;5086235;28;20376;-47
2022/03/24 10:25:28;;;;;;;34.70;17.15;;;12.50;99.90;;;;;;5089273;27;20196;-45
2022/03/24 10:28:03;;;;;;;29.45;16.55;;;12.60;99.90;;;;;;5099056;28;20227;-47
2022/03/24 10:30:46;;;;;;;32.60;16.23;;;12.60;99.90;;;;;;5100359;28;20269;-46
2022/03/24 10:33:27;;;;;;;29.48;16.45;;;12.80;99.90;;;;;;5077701;27;20420;-45
2022/03/24 10:36:09;;;;;;;28.95;16.45;;;12.90;99.90;;;;;;5072693;27;20229;-46
2022/03/24 10:38:39;;;;;;;26.67;16.17;;;13.00;99.90;;;;;;5095055;28;20203;-45
2022/03/24 10:41:18;;;;;;;25.65;15.13;;;13.00;99.90;;;;;;5085354;28;20368;-46
2022/03/24 10:43:46;;;;;;;27.15;15.70;;;13.10;99.90;;;;;;5100285;27;20290;-45
2022/03/24 10:46:15;;;;;;;28.00;16.30;;;13.10;99.90;;;;;;5098597;27;20214;-45
2022/03/24 10:48:42;;;;;;;29.00;15.65;;;13.20;99.90;;;;;;5089875;27;20208;-46
2022/03/24 10:51:09;;;;;;;26.65;15.52;;;13.20;99.90;;;;;;5072367;28;20218;-46
2022/03/24 10:53:40;;;;;;;23.35;15.77;;;13.20;99.90;;;;;;5076980;27;20581;-46
2022/03/24 10:56:12;;;;;;;30.25;16.63;;;13.30;99.90;;;;;;5093269;27;20306;-46
2022/03/24 10:58:46;;;;;;;32.05;16.92;;;13.30;99.90;;;;;;5083821;27;20226;-48
2022/03/24 11:01:16;;;;;;;27.48;16.20;;;13.40;99.90;;;;;;5099860;27;20553;-49
2022/03/24 11:03:43;;;;;;;24.17;15.93;;;13.40;99.90;;;;;;5090920;27;20662;-45
2022/03/24 11:06:12;;;;;;;24.10;16.13;;;13.40;99.90;;;;;;5089074;27;20207;-46
2022/03/24 11:08:39;;;;;;;25.70;15.43;;;13.60;99.90;;;;;;5104750;27;20357;-46
2022/03/24 11:11:08;;;;;;;23.30;15.57;;;13.60;99.90;;;;;;5094939;27;20278;-46
2022/03/24 11:13:51;;;;;;;26.73;15.95;;;13.60;99.90;;;;;;5086975;27;20451;-46
2022/03/24 11:16:20;;;;;;;28.80;14.20;;;13.70;99.90;;;;;;5102169;27;20603;-46
2022/03/24 11:18:48;;;;;;;33.20;14.23;;;13.80;99.90;;;;;;5089208;27;20199;-46
2022/03/24 11:21:22;;;;;;;23.10;12.82;;;13.80;99.90;;;;;;5077863;27;20203;-45
2022/03/24 11:23:53;;;;;;;21.98;11.85;;;13.80;99.90;;;;;;5103833;27;20231;-47
2022/03/24 11:26:21;;;;;;;25.92;13.70;;;13.80;99.90;;;;;;5093012;27;20212;-46
2022/03/24 11:28:50;;;;;;;27.90;13.27;;;13.80;99.90;;;;;;5098783;27;20278;-47
2022/03/24 11:31:18;;;;;;;23.35;13.55;;;13.70;99.90;;;;;;5107479;27;20204;-46
2022/03/24 11:33:47;;;;;;;30.52;14.35;;;13.70;99.90;;;;;;5080750;27;20232;-45
2022/03/24 11:36:16;;;;;;;35.97;16.20;;;13.70;99.90;;;;;;5080881;27;20277;-46
2022/03/24 11:38:43;;;;;;;35.97;16.83;;;13.80;99.90;;;;;;5094629;27;20196;-45
2022/03/24 11:41:18;;;;;;;26.35;15.77;;;13.80;99.90;;;;;;5085595;27;20741;-47
2022/03/24 11:43:51;;;;;;;24.70;15.57;;;13.80;99.90;;;;;;5095885;27;20222;-45
2022/03/24 11:46:29;;;;;;;31.15;13.50;;;13.80;99.90;;;;;;5101448;27;20209;-45
2022/03/24 11:49:21;;;;;;;24.48;13.68;;;13.80;99.90;;;;;;5102834;27;20401;-44
2022/03/24 11:51:50;;;;;;;24.85;14.93;;;13.80;99.90;;;;;;5066575;27;20294;-48
2022/03/24 11:54:31;;;;;;;26.20;14.68;;;13.90;99.90;;;;;;5097802;27;20297;-46
2022/03/24 11:57:28;;;;;;;25.77;14.57;;;13.90;99.90;;;;;;5085643;27;20205;-45
2022/03/24 12:00:32;;;;;;;24.42;14.93;;;14.00;99.90;;;;;;5077182;27;20320;-45
2022/03/24 12:03:02;;;;;;;24.90;14.95;;;14.00;99.90;;;;;;5086701;27;20602;-46
2022/03/24 12:05:47;;;;;;;26.45;15.13;;;14.00;99.90;;;;;;5087005;27;20577;-46
2022/03/24 12:08:14;;;;;;;32.42;15.32;;;14.00;99.90;;;;;;5082687;27;20207;-46
2022/03/24 12:10:41;;;;;;;26.73;15.27;;;13.90;99.90;;;;;;5098586;27;20500;-46
2022/03/24 12:13:21;;;;;;;25.77;15.55;;;13.90;99.90;;;;;;5092423;27;20443;-46
2022/03/24 12:16:11;;;;;;;25.63;16.17;;;14.00;99.90;;;;;;5084256;27;20245;-47
2022/03/24 12:18:44;;;;;;;31.83;17.25;;;14.10;99.90;;;;;;5085501;27;20204;-47
2022/03/24 12:21:19;;;;;;;29.73;16.45;;;14.10;99.90;;;;;;5079855;28;20227;-45
2022/03/24 12:24:15;;;;;;;26.83;16.92;;;14.20;99.90;;;;;;5062814;27;20330;-47
2022/03/24 12:26:50;;;;;;;24.08;15.15;;;14.10;99.90;;;;;;5096414;27;20245;-46
2022/03/24 12:29:21;;;;;;;30.45;16.83;;;14.10;99.90;;;;;;5080831;27;20458;-43
2022/03/24 12:32:01;;;;;;;25.80;15.63;;;14.20;99.90;;;;;;5083079;27;20213;-46
2022/03/24 12:34:32;;;;;;;25.70;15.10;;;14.20;99.90;;;;;;5096798;27;20295;-46
2022/03/24 12:36:59;;;;;;;26.70;15.82;;;14.30;99.90;;;;;;5087138;27;20231;-45
2022/03/24 12:39:32;;;;;;;24.48;14.48;;;14.30;99.90;;;;;;5088011;27;20199;-46
2022/03/24 12:42:04;;;;;;;23.88;13.70;;;14.40;99.90;;;;;;5094951;27;20208;-45